Time;durP1;ratioP1;P1;durP2;ratioP2;P2;SDS_P1;SDS_P2;PMS_P1;PMS_P2;Temp;Humidity;BMP_temperature;BMP_pressure;BME280_temperature;BME280_humidity;BME280_pressure;Samples;Min_cycle;Max_cycle;Signal;HPM_P1;HPM_P2
2023/10/10 00:00:57;;;;;;;22.08;17.40;;;;;;;7.96;100.00;99837.53;4994782;28;20070;-91
2023/10/10 00:03:24;;;;;;;20.77;15.73;;;;;;;8.04;100.00;99857.19;5017006;28;20026;-90
2023/10/10 00:05:49;;;;;;;21.95;16.98;;;;;;;8.41;100.00;99917.38;5017026;28;20026;-91
2023/10/10 00:08:18;;;;;;;20.10;16.13;;;;;;;8.45;100.00;99911.16;5017065;28;20080;-90
2023/10/10 00:10:50;;;;;;;21.23;14.82;;;;;;;8.48;100.00;99910.22;5017192;28;20056;-91
2023/10/10 00:13:19;;;;;;;20.30;15.55;;;;;;;8.15;100.00;99847.31;5016793;28;20037;-91
2023/10/10 00:15:50;;;;;;;21.60;15.52;;;;;;;8.61;100.00;99910.66;5016937;28;20037;-91
2023/10/10 00:18:22;;;;;;;22.73;16.08;;;;;;;8.36;100.00;99864.75;5016961;28;20021;-92
2023/10/10 00:21:20;;;;;;;26.75;18.27;;;;;;;8.65;100.00;99915.69;5016946;28;20471;-89
2023/10/10 00:23:54;;;;;;;23.95;16.08;;;;;;;8.64;100.00;99919.19;5016890;28;20022;-89
2023/10/10 00:26:22;;;;;;;22.15;17.08;;;;;;;8.62;100.00;99915.78;5016465;28;20476;-90
2023/10/10 00:28:54;;;;;;;22.23;16.75;;;;;;;8.49;100.00;99884.22;5016510;28;20036;-91
2023/10/10 00:31:31;;;;;;;29.25;19.23;;;;;;;8.70;100.00;99918.13;5016463;28;20027;-90
2023/10/10 00:33:56;;;;;;;22.25;17.17;;;;;;;8.58;100.00;99913.34;5016725;28;20025;-91
2023/10/10 00:36:25;;;;;;;25.45;18.25;;;;;;;8.17;100.00;99848.09;5016345;28;20037;-90
2023/10/10 00:38:54;;;;;;;23.98;17.75;;;;;;;8.64;100.00;99928.75;5016620;28;20413;-90
2023/10/10 00:41:22;;;;;;;23.00;17.60;;;;;;;8.65;100.00;99920.03;5016007;28;20040;-90
2023/10/10 00:43:49;;;;;;;23.90;18.55;;;;;;;8.55;100.00;99914.28;5016415;28;20021;-90
2023/10/10 00:46:14;;;;;;;24.42;18.95;;;;;;;8.48;100.00;99918.03;5015452;28;20033;-91
2023/10/10 00:48:40;;;;;;;24.13;18.80;;;;;;;8.45;100.00;99907.72;5016116;28;20392;-89
2023/10/10 00:51:10;;;;;;;22.85;18.50;;;;;;;8.52;100.00;99913.56;5016305;28;20384;-90
2023/10/10 00:53:39;;;;;;;28.83;20.88;;;;;;;7.92;100.00;99804.84;5015915;28;20029;-90
2023/10/10 00:56:06;;;;;;;25.63;19.40;;;;;;;8.55;100.00;99908.25;5016540;28;20029;-90
2023/10/10 00:58:38;;;;;;;25.02;19.88;;;;;;;8.46;100.00;99893.84;5015901;28;20056;-91
2023/10/10 01:01:10;;;;;;;31.00;20.90;;;;;;;8.33;100.00;99867.44;5015896;28;20120;-90
2023/10/10 01:03:41;;;;;;;29.35;21.05;;;;;;;8.18;100.00;99849.81;5015735;28;20420;-90
2023/10/10 01:06:24;;;;;;;;;;;;;;;8.47;100.00;99909.38;5033893;28;20032;-90
2023/10/10 01:09:20;;;;;;;26.75;19.80;;;;;;;8.52;100.00;99903.19;5010966;28;19917;-91
2023/10/10 01:11:48;;;;;;;26.17;20.13;;;;;;;8.55;100.00;99908.25;5010908;28;20129;-90
2023/10/10 01:14:21;;;;;;;30.00;21.70;;;;;;;8.43;100.00;99914.75;4994918;28;20121;-91
2023/10/10 01:16:57;;;;;;;29.52;22.08;;;;;;;8.38;100.00;99914.03;4994938;28;20029;-90
2023/10/10 01:19:28;;;;;;;35.80;23.80;;;;;;;8.28;100.00;99892.69;4994665;28;20042;-90
2023/10/10 01:22:00;;;;;;;27.65;19.02;;;;;;;8.04;100.00;99850.25;4994631;28;20153;-90
2023/10/10 01:24:26;;;;;;;33.00;23.95;;;;;;;8.37;100.00;99902.78;4994802;28;20578;-90
2023/10/10 01:26:52;;;;;;;30.25;22.38;;;;;;;8.30;100.00;99900.41;4994650;28;20037;-90
2023/10/10 01:31:45;;;;;;;32.97;22.50;;;;;;;8.43;100.00;99902.59;5010860;28;20034;-90
2023/10/10 01:34:30;;;;;;;31.48;22.30;;;;;;;8.54;100.00;99914.34;4994405;28;20100;-90
2023/10/10 01:36:59;;;;;;;27.30;20.90;;;;;;;8.57;100.00;99912.50;4994614;28;20037;-90
2023/10/10 01:39:53;;;;;;;27.45;20.75;;;;;;;8.57;100.00;99904.72;5001226;28;20096;-90
2023/10/10 01:42:24;;;;;;;28.60;21.13;;;;;;;8.64;100.00;99906.22;4955637;28;20045;-90
2023/10/10 01:44:51;;;;;;;27.45;20.80;;;;;;;8.63;100.00;99894.09;4955448;28;20043;-90
2023/10/10 01:47:25;;;;;;;26.33;20.83;;;;;;;8.65;100.00;99907.91;4971572;28;20061;-91
2023/10/10 01:49:52;;;;;;;28.70;20.55;;;;;;;8.62;100.00;99904.56;4955486;28;20572;-91
2023/10/10 01:52:20;;;;;;;26.48;20.77;;;;;;;8.35;100.00;99870.00;4955539;28;20027;-90
2023/10/10 01:54:52;;;;;;;24.80;19.15;;;;;;;8.55;100.00;99890.09;4971318;28;20046;-90
2023/10/10 01:57:21;;;;;;;26.35;19.67;;;;;;;8.13;100.00;99825.72;4971303;28;20522;-90
2023/10/10 01:59:51;;;;;;;32.80;21.02;;;;;;;7.86;100.00;99789.47;4954973;28;20046;-91
2023/10/10 02:02:21;;;;;;;26.27;20.40;;;;;;;8.50;100.00;99893.69;4955199;28;20023;-90
2023/10/10 02:04:47;;;;;;;28.20;20.50;;;;;;;8.54;100.00;99898.78;4971159;28;20046;-91
2023/10/10 02:10:13;;;;;;;30.23;21.35;;;;;;;8.50;100.00;99898.03;4894756;29;20583;-90
2023/10/10 02:12:44;;;;;;;29.40;21.63;;;;;;;8.40;100.00;99886.28;4894683;29;20111;-90
2023/10/10 02:15:15;;;;;;;26.53;20.40;;;;;;;8.37;100.00;99892.41;4895016;29;20488;-90
2023/10/10 02:17:50;;;;;;;;;;;;;;;8.41;100.00;99901.78;4895092;29;20389;-89
2023/10/10 02:20:33;;;;;;;26.60;20.33;;;;;;;8.35;100.00;99890.75;4927458;29;19915;-90
2023/10/10 02:25:46;;;;;;;27.73;20.92;;;;;;;8.42;100.00;99893.09;4933022;29;20074;-90
2023/10/10 02:30:46;;;;;;;28.60;21.58;;;;;;;8.25;100.00;99885.00;4932490;29;20071;-90
2023/10/10 02:35:55;;;;;;;30.08;20.90;;;;;;;8.15;100.00;99870.66;4932787;29;20040;-89
2023/10/10 02:38:22;;;;;;;30.98;21.75;;;;;;;8.35;100.00;99904.56;4916857;29;20036;-90
2023/10/10 02:40:53;;;;;;;30.30;22.25;;;;;;;8.37;100.00;99891.56;4932616;29;20086;-90
2023/10/10 02:43:33;;;;;;;30.83;22.23;;;;;;;8.40;100.00;99900.09;4932636;29;20068;-91
2023/10/10 02:45:58;;;;;;;26.25;20.60;;;;;;;8.40;100.00;99897.50;4939187;28;20286;-90
2023/10/10 02:48:26;;;;;;;25.92;20.73;;;;;;;8.54;100.00;99909.16;5015085;28;20116;-90
2023/10/10 02:50:52;;;;;;;26.38;20.80;;;;;;;8.53;100.00;99902.28;5032353;28;20108;-90
2023/10/10 02:53:19;;;;;;;28.85;21.55;;;;;;;8.48;100.00;99915.44;5014552;28;20278;-90
2023/10/10 02:55:50;;;;;;;29.60;22.45;;;;;;;7.68;100.00;99793.50;5014099;28;20507;-90
2023/10/10 02:58:27;;;;;;;29.23;21.52;;;;;;;8.30;100.00;99901.28;5014389;28;20527;-90
2023/10/10 03:00:57;;;;;;;32.63;22.60;;;;;;;8.14;100.00;99864.63;5014178;28;20033;-90
2023/10/10 03:03:25;;;;;;;32.08;23.33;;;;;;;8.46;100.00;99912.88;5014393;28;20539;-90
2023/10/10 03:05:51;;;;;;;27.75;21.73;;;;;;;8.47;100.00;99917.19;5014188;28;20068;-91
2023/10/10 03:08:35;;;;;;;29.50;22.20;;;;;;;8.50;100.00;99921.41;5014341;28;20064;-90
2023/10/10 03:11:14;;;;;;;31.05;21.52;;;;;;;8.54;100.00;99928.19;5018292;28;20029;-90
2023/10/10 03:13:54;;;;;;;30.33;21.02;;;;;;;8.34;100.00;99897.66;5018078;28;20425;-90
2023/10/10 03:24:14;;;;;;;30.95;22.60;;;;;;;8.53;100.00;99941.22;5035962;28;20034;-90
2023/10/10 03:29:11;;;;;;;33.03;22.98;;;;;;;8.59;100.00;99920.22;5035947;28;20044;-90
2023/10/10 03:31:47;;;;;;;34.65;23.80;;;;;;;8.34;100.00;99886.44;5017575;28;20026;-90
2023/10/10 03:36:45;;;;;;;30.73;21.25;;;;;;;8.43;100.00;99889.63;5035379;28;20392;-91
2023/10/10 05:23:51;;;;;;;48.90;30.45;;;;;;;8.50;100.00;99934.38;4916720;29;20046;-90
2023/10/10 05:26:19;;;;;;;56.50;32.03;;;;;;;8.52;100.00;99939.53;4899802;29;20032;-90
2023/10/10 05:28:48;;;;;;;48.17;30.20;;;;;;;8.49;100.00;99923.16;4899611;29;20035;-91
2023/10/10 05:31:19;;;;;;;52.78;29.63;;;;;;;8.65;100.00;99938.22;4915630;29;20032;-91
2023/10/10 05:33:47;;;;;;;46.72;30.25;;;;;;;8.69;100.00;99930.28;4899509;29;20061;-90
2023/10/10 05:36:13;;;;;;;49.63;30.15;;;;;;;8.12;100.00;99842.22;4899850;29;20089;-91
2023/10/10 05:38:39;;;;;;;59.10;30.33;;;;;;;8.82;100.00;99928.09;4877395;29;20097;-90
2023/10/10 05:41:10;;;;;;;50.90;31.77;;;;;;;8.92;100.00;99946.78;4876514;29;20045;-90
2023/10/10 05:43:35;;;;;;;49.78;30.73;;;;;;;8.91;100.00;99938.16;4876569;29;20044;-90
2023/10/10 05:46:03;;;;;;;46.53;29.65;;;;;;;8.76;100.00;99915.31;4876507;29;20036;-90
2023/10/10 05:48:31;;;;;;;48.22;32.67;;;;;;;8.91;100.00;99940.75;4876803;29;20049;-90
2023/10/10 05:50:57;;;;;;;44.45;28.52;;;;;;;8.92;100.00;99952.00;4876376;29;20056;-90
2023/10/10 05:53:24;;;;;;;47.63;31.45;;;;;;;8.97;100.00;99950.94;4876283;29;20045;-90
2023/10/10 05:55:53;;;;;;;50.72;31.65;;;;;;;9.01;100.00;99946.47;4876100;29;20075;-90
2023/10/10 05:58:20;;;;;;;46.50;30.42;;;;;;;9.00;100.00;99945.63;4876183;29;20060;-91
2023/10/10 06:00:48;;;;;;;48.40;30.20;;;;;;;8.99;100.00;99951.72;4860489;29;20405;-90
2023/10/10 06:03:15;;;;;;;54.47;32.15;;;;;;;8.95;100.00;99950.13;4862688;29;20025;-90
2023/10/10 06:05:49;;;;;;;52.10;30.77;;;;;;;8.86;100.00;99939.22;4860899;29;20048;-89
2023/10/10 06:08:15;;;;;;;47.85;30.75;;;;;;;9.05;100.00;99949.81;4860826;29;20040;-90
2023/10/10 06:10:40;;;;;;;44.28;30.20;;;;;;;8.98;100.00;99955.22;4896557;29;20484;-90
2023/10/10 06:13:06;;;;;;;39.75;28.70;;;;;;;9.12;100.00;99962.53;4899276;29;20032;-90
2023/10/10 06:15:33;;;;;;;49.45;32.97;;;;;;;9.11;100.00;99963.44;4899226;29;20453;-90
2023/10/10 06:18:11;;;;;;;44.78;29.33;;;;;;;9.03;100.00;99930.84;4898961;29;20469;-89
2023/10/10 06:20:41;;;;;;;49.13;32.40;;;;;;;9.29;100.00;99948.94;4899128;29;20068;-89
2023/10/10 06:23:20;;;;;;;46.67;30.48;;;;;;;9.30;100.00;99952.38;4898894;29;20024;-90
2023/10/10 06:25:46;;;;;;;43.47;30.08;;;;;;;9.27;100.00;99973.28;4898870;29;20468;-90
2023/10/10 06:28:25;;;;;;;45.75;30.35;;;;;;;9.26;100.00;99969.81;4899100;29;20123;-90
2023/10/10 06:30:54;;;;;;;46.60;31.92;;;;;;;9.27;100.00;99976.75;4899393;29;20064;-90
2023/10/10 06:33:27;;;;;;;48.85;30.83;;;;;;;9.18;100.00;99938.06;4899207;29;20044;-90
2023/10/10 06:36:06;;;;;;;51.97;31.30;;;;;;;9.30;100.00;99958.41;4899382;29;20369;-90
2023/10/10 06:38:32;;;;;;;44.33;29.95;;;;;;;9.56;100.00;99967.84;4899276;29;20131;-91
2023/10/10 06:40:59;;;;;;;52.17;33.13;;;;;;;9.65;100.00;99974.47;4899245;29;20118;-90
2023/10/10 06:43:24;;;;;;;47.78;31.13;;;;;;;9.60;100.00;99963.38;4899483;29;20083;-90
2023/10/10 06:45:54;;;;;;;45.13;30.30;;;;;;;9.51;100.00;99951.56;4902784;29;20032;-90
2023/10/10 06:48:21;;;;;;;47.92;31.48;;;;;;;9.69;100.00;99968.22;4903079;29;20484;-90
2023/10/10 06:50:49;;;;;;;51.90;32.38;;;;;;;9.57;100.00;99943.56;4902491;29;20036;-89
2023/10/10 06:53:36;;;;;;;45.58;30.58;;;;;;;9.67;100.00;99955.31;4903282;29;20028;-91
2023/10/10 06:56:14;;;;;;;42.83;29.50;;;;;;;9.95;100.00;99985.47;4892835;29;20524;-91
2023/10/10 06:58:49;;;;;;;42.78;28.13;;;;;;;10.04;100.00;99971.25;4896447;29;20028;-90
2023/10/10 07:01:19;;;;;;;46.40;29.27;;;;;;;10.12;100.00;99977.84;4896830;29;20092;-89
2023/10/10 07:03:54;;;;;;;48.05;31.13;;;;;;;10.10;100.00;99976.22;4902966;29;20030;-90
2023/10/10 07:06:20;;;;;;;47.45;30.75;;;;;;;10.12;100.00;99979.63;4902732;29;20437;-90
2023/10/10 07:08:49;;;;;;;43.40;29.88;;;;;;;10.08;100.00;99981.47;4902117;29;20036;-91
2023/10/10 07:11:20;;;;;;;45.47;30.35;;;;;;;10.12;100.00;99977.00;4902749;29;20391;-90
2023/10/10 07:13:57;;;;;;;48.08;33.60;;;;;;;10.11;100.00;99985.69;4902244;29;20024;-89
2023/10/10 07:16:23;;;;;;;47.83;31.98;;;;;;;10.08;100.00;99978.03;4902571;29;20122;-90
2023/10/10 07:18:56;;;;;;;53.10;33.38;;;;;;;9.95;100.00;99975.06;4902350;29;20123;-91
2023/10/10 07:21:36;;;;;;;44.30;30.40;;;;;;;9.98;100.00;99973.16;4902447;29;20036;-90
2023/10/10 07:24:14;;;;;;;48.53;32.47;;;;;;;10.15;100.00;99980.31;4902484;29;20495;-90
2023/10/10 07:26:43;;;;;;;45.20;30.58;;;;;;;10.00;100.00;99941.91;4902787;29;20039;-91
2023/10/10 07:29:27;;;;;;;51.00;31.05;;;;;;;9.88;100.00;99917.22;4879143;29;20452;-89
2023/10/10 07:32:07;;;;;;;44.58;30.10;;;;;;;10.21;100.00;99961.03;4863523;29;20041;-90
2023/10/10 07:34:35;;;;;;;43.42;28.38;;;;;;;10.39;100.00;99991.53;4864000;29;20045;-90
2023/10/10 07:37:08;;;;;;;42.78;28.23;;;;;;;10.33;100.00;99964.94;4864150;29;20606;-91
2023/10/10 07:39:54;;;;;;;40.88;27.30;;;;;;;10.54;100.00;99987.47;4864026;29;20453;-91
2023/10/10 07:42:27;;;;;;;48.58;32.30;;;;;;;10.52;100.00;99978.88;4863479;29;20026;-90
2023/10/10 07:44:59;;;;;;;46.67;30.73;;;;;;;10.53;100.00;99982.31;4863315;29;20393;-90
2023/10/10 07:47:29;;;;;;;46.00;29.67;;;;;;;10.49;100.00;99982.47;4863483;29;20041;-91
2023/10/10 07:49:55;;;;;;;47.80;30.73;;;;;;;10.55;100.00;99981.34;4863836;29;20489;-91
2023/10/10 07:52:22;;;;;;;44.25;30.73;;;;;;;10.60;100.00;99987.22;4863637;29;20538;-91
2023/10/10 07:54:52;;;;;;;48.85;31.13;;;;;;;10.60;100.00;99984.63;4863196;29;20100;-91
2023/10/10 07:57:28;;;;;;;52.47;32.25;;;;;;;10.60;100.00;99995.03;4878965;29;20037;-91
2023/10/10 07:59:58;;;;;;;47.22;30.05;;;;;;;10.59;100.00;99990.75;4862737;29;20056;-91
2023/10/10 08:02:24;;;;;;;43.17;29.48;;;;;;;10.67;100.00;99996.47;4863499;29;20033;-91
2023/10/10 08:04:54;;;;;;;51.65;30.02;;;;;;;10.69;100.00;99992.03;4862936;29;20033;-91
2023/10/10 08:07:22;;;;;;;43.15;27.98;;;;;;;10.70;100.00;99975.53;4894454;29;20040;-91
2023/10/10 08:09:48;;;;;;;47.28;32.45;;;;;;;10.77;100.00;99985.66;4917578;29;20389;-91
2023/10/10 08:12:15;;;;;;;47.45;30.42;;;;;;;10.22;100.00;99887.22;4902016;29;20028;-91
2023/10/10 08:14:42;;;;;;;45.38;30.00;;;;;;;10.91;100.00;99985.94;4897368;29;20076;-91
2023/10/10 08:17:19;;;;;;;41.53;27.45;;;;;;;11.20;100.00;99988.13;4881452;29;20044;-91
2023/10/10 08:19:50;;;;;;;43.40;29.15;;;;;;;11.51;100.00;99997.22;4881805;29;20378;-91
2023/10/10 08:22:25;;;;;;;42.08;30.13;;;;;;;11.68;100.00;99997.28;4881360;29;20036;-91
2023/10/10 08:24:54;;;;;;;39.80;27.20;;;;;;;11.76;100.00;100001.31;4881117;29;20044;-91
2023/10/10 08:27:22;;;;;;;39.42;28.65;;;;;;;11.73;100.00;100000.53;4881389;29;20041;-92
2023/10/10 08:29:50;;;;;;;40.00;28.65;;;;;;;11.60;100.00;99973.31;4881335;29;20677;-91
2023/10/10 08:32:16;;;;;;;39.97;27.38;;;;;;;11.70;100.00;100005.03;4881526;29;20127;-92
2023/10/10 08:34:42;;;;;;;36.47;25.70;;;;;;;11.69;100.00;100004.19;4881202;29;20035;-91
2023/10/10 08:37:09;;;;;;;37.28;25.48;;;;;;;11.53;100.00;99964.06;4881106;29;20033;-91
2023/10/10 08:39:35;;;;;;;41.85;27.40;;;;;;;11.79;100.00;99995.94;4881159;29;20049;-91
2023/10/10 08:42:14;;;;;;;41.33;27.65;;;;;;;11.71;100.00;99991.06;4880955;29;20028;-92
2023/10/10 08:44:40;;;;;;;44.95;29.48;;;;;;;11.67;100.00;99989.53;4881146;29;20513;-91
2023/10/10 08:47:25;;;;;;;40.83;28.20;;;;;;;11.64;100.00;99977.47;4881217;29;20123;-92
2023/10/10 08:49:51;;;;;;;48.97;30.15;;;;;;;11.66;100.00;99983.47;4877761;29;20041;-92
2023/10/10 08:52:17;;;;;;;48.92;28.30;;;;;;;11.66;100.00;99964.34;4873121;29;20041;-91
2023/10/10 08:54:44;;;;;;;35.25;24.70;;;;;;;11.91;100.00;99984.97;4896292;29;20044;-91
2023/10/10 08:57:11;;;;;;;40.20;27.13;;;;;;;12.06;100.00;99983.41;4896228;29;20588;-91
2023/10/10 08:59:42;;;;;;;36.85;25.67;;;;;;;11.95;100.00;99948.22;4880422;29;20076;-92
2023/10/10 09:02:17;;;;;;;30.90;23.13;;;;;;;12.15;100.00;99980.38;4880655;29;20064;-91
2023/10/10 09:04:43;;;;;;;32.90;24.20;;;;;;;12.16;100.00;99975.06;4896382;29;20432;-90
2023/10/10 09:07:11;;;;;;;32.60;24.05;;;;;;;11.87;100.00;99905.97;4879929;29;20119;-91
2023/10/10 09:12:04;;;;;;;30.80;22.77;;;;;;;12.73;100.00;99990.59;4896070;29;20080;-91
2023/10/10 09:14:49;;;;;;;33.40;22.70;;;;;;;12.98;100.00;99984.97;4880365;29;20037;-90
2023/10/10 09:17:34;;;;;;;34.53;23.05;;;;;;;13.23;100.00;99988.03;4880280;29;20040;-91
2023/10/10 09:20:22;;;;;;;31.23;22.38;;;;;;;13.38;100.00;99990.75;4883314;29;20051;-91
2023/10/10 09:22:51;;;;;;;33.92;24.27;;;;;;;13.36;100.00;99982.16;4900323;29;20436;-90
2023/10/10 09:25:26;;;;;;;31.92;23.40;;;;;;;13.29;100.00;99984.25;4900192;29;20025;-91
2023/10/10 09:28:07;;;;;;;30.92;23.02;;;;;;;13.25;100.00;99974.88;4900162;29;20035;-91
2023/10/10 09:33:27;;;;;;;30.30;21.75;;;;;;;13.43;100.00;99988.75;4840026;29;20041;-91
2023/10/10 09:38:46;;;;;;;33.67;22.77;;;;;;;13.54;100.00;99970.72;4840137;29;20052;-91
2023/10/10 09:41:27;;;;;;;32.42;22.73;;;;;;;13.50;100.00;99952.66;4839343;29;20044;-91
2023/10/10 09:44:30;;;;;;;30.80;22.55;;;;;;;13.66;100.00;99950.88;4824529;29;20045;-91
2023/10/10 09:49:46;;;;;;;26.63;18.42;;;;;;;13.88;100.00;99968.88;4839975;29;20042;-91
2023/10/10 09:57:42;;;;;;;28.55;21.08;;;;;;;13.88;100.00;99993.28;4803155;29;20058;-91
2023/10/10 10:00:15;;;;;;;27.40;19.30;;;;;;;13.87;100.00;99998.63;4802632;29;20059;-93
2023/10/10 10:02:49;;;;;;;31.73;21.48;;;;;;;13.86;100.00;99997.78;4802893;29;20043;-91
2023/10/10 10:05:28;;;;;;;27.90;19.67;;;;;;;13.90;100.00;100003.66;4802844;29;20053;-91
2023/10/10 10:08:06;;;;;;;24.48;18.30;;;;;;;13.87;100.00;100007.31;4803027;29;20043;-92
2023/10/10 10:10:52;;;;;;;27.67;20.60;;;;;;;13.83;100.00;100004.94;4843600;29;20555;-92
2023/10/10 10:13:39;;;;;;;26.77;20.52;;;;;;;13.82;100.00;100008.47;4860409;29;20520;-92
2023/10/10 10:16:19;;;;;;;26.73;20.17;;;;;;;13.59;100.00;99965.22;4875984;29;20033;-91
2023/10/10 10:18:47;;;;;;;23.65;18.08;;;;;;;13.79;100.00;100004.25;4876111;29;20106;-90
2023/10/10 10:21:32;;;;;;;21.08;17.15;;;;;;;13.77;100.00;100003.47;4860347;29;20509;-90
2023/10/10 10:24:16;;;;;;;22.60;16.98;;;;;;;13.80;100.00;99998.09;4893691;29;20043;-90
2023/10/10 10:26:43;;;;;;;24.08;17.45;;;;;;;13.83;100.00;99997.94;4899157;29;20536;-91
2023/10/10 10:29:22;;;;;;;26.33;19.58;;;;;;;13.84;100.00;100002.22;4898856;29;20024;-90
2023/10/10 10:31:51;;;;;;;27.20;19.60;;;;;;;13.77;100.00;100006.09;4898979;29;20555;-90
2023/10/10 10:34:23;;;;;;;22.00;17.00;;;;;;;13.78;100.00;100006.94;4875467;29;20052;-91
2023/10/10 10:37:19;;;;;;;25.85;17.88;;;;;;;13.81;100.00;99999.78;4860233;29;20109;-90
2023/10/10 10:42:34;;;;;;;26.90;18.45;;;;;;;13.73;100.00;99994.94;4876353;29;20079;-91
2023/10/10 10:45:41;;;;;;;21.85;16.65;;;;;;;13.83;100.00;99990.06;4860440;29;20084;-90
2023/10/10 10:48:11;;;;;;;18.67;15.50;;;;;;;13.92;100.00;99991.34;4860139;29;20545;-91
2023/10/10 10:50:43;;;;;;;23.23;17.20;;;;;;;13.87;100.00;99975.88;4860539;29;20085;-90
2023/10/10 10:53:20;;;;;;;;;;;;;;;14.04;100.00;99995.06;4860460;29;20071;-89
2023/10/10 10:55:57;;;;;;;20.95;16.33;;;;;;;14.13;100.00;99997.16;4860267;29;19912;-91
2023/10/10 10:58:26;;;;;;;19.67;15.13;;;;;;;14.15;100.00;99987.44;4860183;29;20025;-90
2023/10/10 11:01:00;;;;;;;20.38;15.98;;;;;;;14.05;100.00;99965.31;4860236;29;20053;-92
2023/10/10 11:03:35;;;;;;;20.67;15.43;;;;;;;14.09;100.00;99970.31;4860242;29;20068;-91
2023/10/10 11:06:09;;;;;;;21.25;15.27;;;;;;;14.31;100.00;99998.75;4890889;29;20063;-92
2023/10/10 11:16:47;;;;;;;20.50;15.20;;;;;;;14.47;100.00;99989.09;4894701;29;20392;-91
2023/10/10 11:21:54;;;;;;;17.90;14.70;;;;;;;14.42;100.00;99982.44;4894463;29;20398;-91
2023/10/10 11:24:25;;;;;;;16.60;13.85;;;;;;;14.56;100.00;99987.75;4878399;29;20037;-92
2023/10/10 11:27:22;;;;;;;18.27;14.00;;;;;;;14.68;100.00;99994.06;4875478;29;20405;-91
2023/10/10 11:29:45;;;;;;;13.95;11.80;;;;;;;14.68;100.00;99992.28;4875494;29;20045;-90
2023/10/10 11:32:25;;;;;;;16.67;13.73;;;;;;;14.66;100.00;99986.31;4863146;29;20075;-91
2023/10/10 11:35:17;;;;;;;15.77;12.73;;;;;;;14.63;100.00;99985.63;4863353;29;20045;-92
2023/10/10 11:37:47;;;;;;;17.63;14.00;;;;;;;14.55;100.00;99978.19;4863607;29;20551;-92
2023/10/10 11:40:19;;;;;;;16.37;13.30;;;;;;;14.65;100.00;99995.06;4877460;29;20051;-91
2023/10/10 11:42:48;;;;;;;;;;;;;;;14.62;100.00;99987.41;4882326;29;20089;-92
2023/10/10 11:45:18;;;;;;;15.27;12.27;;;;;;;14.61;100.00;99975.22;4881840;29;19915;-91
2023/10/10 11:47:45;;;;;;;16.60;12.93;;;;;;;14.50;100.00;99966.31;4881835;29;20060;-91
2023/10/10 11:50:13;;;;;;;15.48;12.77;;;;;;;14.64;100.00;99982.06;4881623;29;20033;-92
2023/10/10 11:52:53;;;;;;;16.33;13.80;;;;;;;14.60;100.00;99980.56;4881620;29;20047;-91
2023/10/10 11:55:26;;;;;;;17.73;14.55;;;;;;;14.49;100.00;99965.44;4896995;29;20092;-91
2023/10/10 11:57:58;;;;;;;15.18;13.02;;;;;;;14.63;100.00;99985.63;4891812;29;20500;-91
2023/10/10 12:00:42;;;;;;;18.02;13.05;;;;;;;14.66;100.00;99982.81;4901163;29;20044;-91
2023/10/10 12:03:12;;;;;;;18.13;15.15;;;;;;;14.82;100.00;99985.38;4901404;29;20028;-91
2023/10/10 12:05:47;;;;;;;15.27;12.95;;;;;;;14.95;100.00;99986.34;4901429;29;20034;-91
2023/10/10 12:08:15;;;;;;;15.48;12.65;;;;;;;14.99;100.00;99977.38;4901442;29;20043;-91
2023/10/10 12:13:11;;;;;;;16.45;12.93;;;;;;;14.80;100.00;99971.53;4918222;29;20047;-91
2023/10/10 12:15:39;;;;;;;13.10;10.95;;;;;;;14.81;100.00;99987.16;4901321;29;20036;-91
2023/10/10 12:18:11;;;;;;;12.55;10.73;;;;;;;14.73;100.00;99986.78;4900817;29;20472;-91
2023/10/10 12:20:44;;;;;;;14.88;12.57;;;;;;;14.66;100.00;99988.06;4901116;29;20036;-91
2023/10/10 12:23:15;;;;;;;20.35;15.43;;;;;;;14.58;100.00;99979.78;4901188;29;20353;-91
2023/10/10 12:25:41;;;;;;;;;;;;;;;14.54;100.00;99984.38;4901663;29;20492;-91
2023/10/10 12:28:09;;;;;;;19.25;15.02;;;;;;;14.61;100.00;99983.06;4900990;29;19911;-91
2023/10/10 12:30:41;;;;;;;18.48;15.23;;;;;;;14.63;100.00;99977.75;4901254;29;20373;-91
2023/10/10 12:33:08;;;;;;;16.90;14.05;;;;;;;14.72;100.00;99983.31;4900675;29;20028;-91
2023/10/10 12:35:35;;;;;;;15.70;12.75;;;;;;;14.73;100.00;99974.50;4900815;29;20047;-91
2023/10/10 12:38:01;;;;;;;11.88;10.48;;;;;;;14.86;100.00;99979.88;4900981;29;20032;-91
2023/10/10 12:40:29;;;;;;;11.98;9.40;;;;;;;14.94;100.00;99980.25;4900798;29;20484;-91
2023/10/10 12:42:55;;;;;;;9.88;8.45;;;;;;;15.00;100.00;99978.19;4899954;29;20059;-91
2023/10/10 12:45:20;;;;;;;8.73;7.38;;;;;;;15.03;100.00;99972.78;4900781;29;20070;-92
2023/10/10 12:47:48;;;;;;;9.10;7.53;;;;;;;15.04;100.00;99975.31;4900843;29;20076;-91
2023/10/10 12:50:14;;;;;;;9.57;8.50;;;;;;;15.02;100.00;99965.84;4900570;29;20064;-91
2023/10/10 12:52:46;;;;;;;9.10;7.40;;;;;;;14.95;100.00;99958.34;4900502;29;20392;-91
2023/10/10 12:55:12;;;;;;;7.72;6.55;;;;;;;15.07;100.00;99972.50;4900337;29;20028;-91
2023/10/10 12:57:39;;;;;;;7.88;6.90;;;;;;;15.10;100.00;99974.94;4900453;29;20499;-91
2023/10/10 13:03:06;;;;;;;9.43;8.45;;;;;;;14.94;100.00;99943.53;4840465;29;20053;-91
2023/10/10 13:05:33;;;;;;;8.23;7.43;;;;;;;15.06;100.00;99969.97;4825065;29;20050;-91
2023/10/10 13:07:59;;;;;;;9.73;8.82;;;;;;;15.08;100.00;99973.34;4825069;29;20041;-91
2023/10/10 13:10:30;;;;;;;13.15;11.85;;;;;;;15.11;100.00;99968.75;4824973;29;20033;-92
2023/10/10 13:12:56;;;;;;;20.50;18.70;;;;;;;15.02;100.00;99945.72;4825356;29;20446;-91
2023/10/10 13:15:29;;;;;;;20.65;18.85;;;;;;;15.07;100.00;99946.28;4840041;29;20041;-92
2023/10/10 13:20:43;;;;;;;11.65;10.57;;;;;;;15.29;100.00;99953.66;4840474;29;20137;-91
2023/10/10 13:23:09;;;;;;;9.23;8.32;;;;;;;15.32;100.00;99950.88;4839740;29;20175;-90
2023/10/10 13:25:37;;;;;;;10.15;9.15;;;;;;;15.33;100.00;99936.81;4824633;29;20042;-91
2023/10/10 13:28:09;;;;;;;22.55;20.55;;;;;;;15.35;100.00;99936.72;4824672;29;20038;-91
2023/10/10 13:30:41;;;;;;;36.08;27.88;;;;;;;15.41;100.00;99934.53;4840027;29;20045;-91
2023/10/10 13:33:07;;;;;;;32.08;21.80;;;;;;;15.31;100.00;99911.59;4824721;29;20130;-91
2023/10/10 13:35:37;;;;;;;32.60;29.60;;;;;;;15.46;100.00;99939.50;4824557;29;20065;-91
2023/10/10 13:38:07;;;;;;;22.90;20.83;;;;;;;15.39;100.00;99946.09;4857347;29;20365;-90
2023/10/10 13:40:54;;;;;;;16.95;15.45;;;;;;;15.41;100.00;99950.28;4899208;29;20099;-91
2023/10/10 13:43:19;;;;;;;17.75;16.20;;;;;;;15.41;100.00;99942.41;4915836;29;20024;-91
2023/10/10 13:45:47;;;;;;;9.85;8.98;;;;;;;15.39;100.00;99944.31;4899627;29;20036;-91
2023/10/10 13:48:13;;;;;;;8.60;7.80;;;;;;;15.37;100.00;99950.59;4899373;29;20087;-92
2023/10/10 13:50:42;;;;;;;11.10;9.93;;;;;;;15.34;100.00;99949.00;4876423;29;20044;-91
2023/10/10 13:53:13;;;;;;;9.32;8.43;;;;;;;15.11;100.00;99912.81;4860696;29;20045;-92
2023/10/10 13:55:41;;;;;;;9.10;6.97;;;;;;;15.39;100.00;99956.59;4861203;29;20089;-91
2023/10/10 13:58:10;;;;;;;8.85;7.05;;;;;;;15.41;100.00;99949.47;4860934;29;20029;-91
2023/10/10 14:00:38;;;;;;;9.43;8.13;;;;;;;15.42;100.00;99943.25;4861132;29;20068;-91
2023/10/10 14:03:04;;;;;;;7.00;6.40;;;;;;;15.41;100.00;99934.53;4860803;29;20076;-91
2023/10/10 14:05:37;;;;;;;8.45;6.78;;;;;;;15.40;100.00;99932.88;4857460;29;20049;-91
2023/10/10 14:08:07;;;;;;;12.00;9.40;;;;;;;15.20;100.00;99896.50;4858032;29;20517;-91
2023/10/10 14:10:41;;;;;;;12.82;11.50;;;;;;;15.20;100.00;99902.59;4857390;29;20045;-91
2023/10/10 14:13:19;;;;;;;8.48;7.18;;;;;;;15.33;100.00;99933.34;4857606;29;20157;-91
2023/10/10 14:15:54;;;;;;;7.60;5.75;;;;;;;15.24;100.00;99921.63;4857558;29;20045;-91
2023/10/10 14:18:49;;;;;;;6.45;5.82;;;;;;;15.23;100.00;99923.41;4857448;29;20513;-92
2023/10/10 14:21:16;;;;;;;10.50;9.57;;;;;;;15.26;100.00;99919.78;4857353;29;20185;-90
2023/10/10 14:23:45;;;;;;;10.07;9.23;;;;;;;15.32;100.00;99931.66;4841909;29;20037;-89